sensor_id;sensor_type;location;lat;lon;timestamp;P1;durP1;ratioP1;P2;durP2;ratioP2
18983;SDS011;9626;52.552;13.436;2023-05-07T00:02:03;11.27;;;9.33;;
18983;SDS011;9626;52.552;13.436;2023-05-07T00:04:29;12.27;;;9.87;;
18983;SDS011;9626;52.552;13.436;2023-05-07T00:07:01;11.23;;;9.37;;
18983;SDS011;9626;52.552;13.436;2023-05-07T00:09:27;11.37;;;9.27;;
18983;SDS011;9626;52.552;13.436;2023-05-07T00:11:53;10.60;;;9.00;;
18983;SDS011;9626;52.552;13.436;2023-05-07T00:14:22;13.37;;;9.80;;
18983;SDS011;9626;52.552;13.436;2023-05-07T00:16:48;11.47;;;9.93;;
18983;SDS011;9626;52.552;13.436;2023-05-07T00:19:14;11.33;;;9.00;;
18983;SDS011;9626;52.552;13.436;2023-05-07T00:21:40;10.80;;;9.37;;
18983;SDS011;9626;52.552;13.436;2023-05-07T00:24:06;11.00;;;8.90;;
18983;SDS011;9626;52.552;13.436;2023-05-07T00:26:32;9.43;;;8.47;;
18983;SDS011;9626;52.552;13.436;2023-05-07T00:28:58;11.60;;;9.67;;
18983;SDS011;9626;52.552;13.436;2023-05-07T00:31:24;10.60;;;8.60;;
18983;SDS011;9626;52.552;13.436;2023-05-07T00:33:50;9.10;;;8.07;;
18983;SDS011;9626;52.552;13.436;2023-05-07T00:36:16;12.53;;;9.37;;
18983;SDS011;9626;52.552;13.436;2023-05-07T00:38:42;14.07;;;9.67;;
18983;SDS011;9626;52.552;13.436;2023-05-07T00:41:08;9.53;;;8.53;;
18983;SDS011;9626;52.552;13.436;2023-05-07T00:43:34;9.80;;;8.30;;
18983;SDS011;9626;52.552;13.436;2023-05-07T00:46:01;10.60;;;9.00;;
18983;SDS011;9626;52.552;13.436;2023-05-07T00:48:27;9.50;;;8.47;;
18983;SDS011;9626;52.552;13.436;2023-05-07T00:50:53;11.93;;;9.37;;
18983;SDS011;9626;52.552;13.436;2023-05-07T00:53:19;9.73;;;8.73;;
18983;SDS011;9626;52.552;13.436;2023-05-07T00:55:47;10.90;;;8.80;;
18983;SDS011;9626;52.552;13.436;2023-05-07T00:58:13;13.30;;;8.53;;
18983;SDS011;9626;52.552;13.436;2023-05-07T01:00:40;11.03;;;9.30;;
18983;SDS011;9626;52.552;13.436;2023-05-07T01:03:06;13.30;;;9.40;;
18983;SDS011;9626;52.552;13.436;2023-05-07T01:05:32;11.40;;;9.03;;
18983;SDS011;9626;52.552;13.436;2023-05-07T01:07:58;9.70;;;8.70;;
18983;SDS011;9626;52.552;13.436;2023-05-07T01:10:25;10.77;;;8.53;;
18983;SDS011;9626;52.552;13.436;2023-05-07T01:12:51;12.20;;;8.87;;
18983;SDS011;9626;52.552;13.436;2023-05-07T01:15:19;10.63;;;8.50;;
18983;SDS011;9626;52.552;13.436;2023-05-07T01:17:45;12.20;;;9.60;;
18983;SDS011;9626;52.552;13.436;2023-05-07T01:20:11;10.27;;;8.67;;
18983;SDS011;9626;52.552;13.436;2023-05-07T01:22:37;13.23;;;9.07;;
18983;SDS011;9626;52.552;13.436;2023-05-07T01:25:04;10.00;;;8.80;;
18983;SDS011;9626;52.552;13.436;2023-05-07T01:27:32;10.27;;;8.67;;
18983;SDS011;9626;52.552;13.436;2023-05-07T01:30:06;9.50;;;8.40;;
18983;SDS011;9626;52.552;13.436;2023-05-07T01:32:37;10.20;;;9.00;;
18983;SDS011;9626;52.552;13.436;2023-05-07T01:35:12;11.07;;;8.97;;
18983;SDS011;9626;52.552;13.436;2023-05-07T01:37:50;10.23;;;8.83;;
18983;SDS011;9626;52.552;13.436;2023-05-07T01:40:16;10.37;;;8.80;;
18983;SDS011;9626;52.552;13.436;2023-05-07T01:42:43;13.43;;;9.50;;
18983;SDS011;9626;52.552;13.436;2023-05-07T01:45:09;11.47;;;8.93;;
18983;SDS011;9626;52.552;13.436;2023-05-07T01:47:36;11.00;;;9.63;;
18983;SDS011;9626;52.552;13.436;2023-05-07T01:50:03;10.40;;;8.80;;
18983;SDS011;9626;52.552;13.436;2023-05-07T01:52:31;9.63;;;8.63;;
18983;SDS011;9626;52.552;13.436;2023-05-07T01:54:57;13.33;;;8.63;;
18983;SDS011;9626;52.552;13.436;2023-05-07T01:57:23;10.17;;;8.30;;
18983;SDS011;9626;52.552;13.436;2023-05-07T01:59:49;8.77;;;7.70;;
18983;SDS011;9626;52.552;13.436;2023-05-07T02:02:15;10.97;;;8.50;;
18983;SDS011;9626;52.552;13.436;2023-05-07T02:04:41;10.83;;;9.00;;
18983;SDS011;9626;52.552;13.436;2023-05-07T02:07:07;9.13;;;7.93;;
18983;SDS011;9626;52.552;13.436;2023-05-07T02:09:33;11.00;;;8.37;;
18983;SDS011;9626;52.552;13.436;2023-05-07T02:11:59;10.63;;;8.80;;
18983;SDS011;9626;52.552;13.436;2023-05-07T02:14:26;11.40;;;9.23;;
18983;SDS011;9626;52.552;13.436;2023-05-07T02:16:52;10.37;;;8.90;;
18983;SDS011;9626;52.552;13.436;2023-05-07T02:19:18;10.90;;;8.77;;
18983;SDS011;9626;52.552;13.436;2023-05-07T02:21:46;10.57;;;9.13;;
18983;SDS011;9626;52.552;13.436;2023-05-07T02:24:13;9.80;;;8.40;;
18983;SDS011;9626;52.552;13.436;2023-05-07T02:26:48;10.60;;;9.10;;
18983;SDS011;9626;52.552;13.436;2023-05-07T02:29:14;9.63;;;8.63;;
18983;SDS011;9626;52.552;13.436;2023-05-07T02:31:40;9.80;;;8.80;;
18983;SDS011;9626;52.552;13.436;2023-05-07T02:34:06;11.13;;;9.37;;
18983;SDS011;9626;52.552;13.436;2023-05-07T02:36:32;10.87;;;8.47;;
18983;SDS011;9626;52.552;13.436;2023-05-07T02:38:58;10.53;;;9.23;;
18983;SDS011;9626;52.552;13.436;2023-05-07T02:41:24;9.30;;;8.30;;
18983;SDS011;9626;52.552;13.436;2023-05-07T02:43:50;9.83;;;8.37;;
18983;SDS011;9626;52.552;13.436;2023-05-07T02:46:16;9.80;;;8.77;;
18983;SDS011;9626;52.552;13.436;2023-05-07T02:48:42;10.53;;;8.23;;
18983;SDS011;9626;52.552;13.436;2023-05-07T02:51:08;9.20;;;8.10;;
18983;SDS011;9626;52.552;13.436;2023-05-07T02:53:36;9.87;;;7.93;;
18983;SDS011;9626;52.552;13.436;2023-05-07T02:56:02;11.13;;;8.30;;
18983;SDS011;9626;52.552;13.436;2023-05-07T02:58:28;8.87;;;7.73;;
18983;SDS011;9626;52.552;13.436;2023-05-07T03:00:54;14.53;;;8.43;;
18983;SDS011;9626;52.552;13.436;2023-05-07T03:03:20;9.60;;;8.60;;
18983;SDS011;9626;52.552;13.436;2023-05-07T03:05:46;10.93;;;7.93;;
18983;SDS011;9626;52.552;13.436;2023-05-07T03:08:12;9.50;;;7.83;;
18983;SDS011;9626;52.552;13.436;2023-05-07T03:10:38;8.00;;;7.20;;
18983;SDS011;9626;52.552;13.436;2023-05-07T03:13:04;9.83;;;7.57;;
18983;SDS011;9626;52.552;13.436;2023-05-07T03:15:31;8.70;;;7.47;;
18983;SDS011;9626;52.552;13.436;2023-05-07T03:17:57;9.47;;;8.20;;
18983;SDS011;9626;52.552;13.436;2023-05-07T03:20:23;10.10;;;7.77;;
18983;SDS011;9626;52.552;13.436;2023-05-07T03:22:49;12.13;;;7.80;;
18983;SDS011;9626;52.552;13.436;2023-05-07T03:25:16;8.60;;;7.67;;
18983;SDS011;9626;52.552;13.436;2023-05-07T03:27:41;8.93;;;7.70;;
18983;SDS011;9626;52.552;13.436;2023-05-07T03:30:08;9.40;;;7.83;;
18983;SDS011;9626;52.552;13.436;2023-05-07T03:32:35;8.57;;;7.63;;
18983;SDS011;9626;52.552;13.436;2023-05-07T03:35:01;9.33;;;7.43;;
18983;SDS011;9626;52.552;13.436;2023-05-07T03:37:28;9.90;;;8.20;;
18983;SDS011;9626;52.552;13.436;2023-05-07T03:39:54;8.77;;;7.80;;
18983;SDS011;9626;52.552;13.436;2023-05-07T03:42:20;7.83;;;7.13;;
18983;SDS011;9626;52.552;13.436;2023-05-07T03:44:46;9.93;;;8.23;;
18983;SDS011;9626;52.552;13.436;2023-05-07T03:47:12;10.17;;;7.30;;
18983;SDS011;9626;52.552;13.436;2023-05-07T03:49:39;9.13;;;7.63;;
18983;SDS011;9626;52.552;13.436;2023-05-07T03:52:05;11.60;;;7.77;;
18983;SDS011;9626;52.552;13.436;2023-05-07T03:54:31;8.33;;;6.97;;
18983;SDS011;9626;52.552;13.436;2023-05-07T03:56:57;10.53;;;7.67;;
18983;SDS011;9626;52.552;13.436;2023-05-07T03:59:24;7.83;;;6.97;;
18983;SDS011;9626;52.552;13.436;2023-05-07T04:01:50;8.30;;;7.40;;
18983;SDS011;9626;52.552;13.436;2023-05-07T04:04:16;9.00;;;6.70;;
18983;SDS011;9626;52.552;13.436;2023-05-07T04:06:42;8.33;;;7.33;;
18983;SDS011;9626;52.552;13.436;2023-05-07T04:09:08;7.83;;;7.07;;
18983;SDS011;9626;52.552;13.436;2023-05-07T04:11:35;9.77;;;7.30;;
18983;SDS011;9626;52.552;13.436;2023-05-07T04:14:01;10.33;;;7.27;;
18983;SDS011;9626;52.552;13.436;2023-05-07T04:16:27;10.00;;;7.70;;
18983;SDS011;9626;52.552;13.436;2023-05-07T04:18:53;10.27;;;7.33;;
18983;SDS011;9626;52.552;13.436;2023-05-07T04:21:19;7.90;;;7.07;;
18983;SDS011;9626;52.552;13.436;2023-05-07T04:23:46;10.23;;;7.73;;
18983;SDS011;9626;52.552;13.436;2023-05-07T04:26:13;10.30;;;7.43;;
18983;SDS011;9626;52.552;13.436;2023-05-07T04:28:40;7.73;;;6.90;;
18983;SDS011;9626;52.552;13.436;2023-05-07T04:31:06;10.23;;;6.43;;
18983;SDS011;9626;52.552;13.436;2023-05-07T04:33:32;7.53;;;6.40;;
18983;SDS011;9626;52.552;13.436;2023-05-07T04:35:59;7.70;;;6.90;;
18983;SDS011;9626;52.552;13.436;2023-05-07T04:38:28;7.53;;;6.40;;
18983;SDS011;9626;52.552;13.436;2023-05-07T04:40:56;7.73;;;6.77;;
18983;SDS011;9626;52.552;13.436;2023-05-07T04:43:22;7.83;;;6.20;;
18983;SDS011;9626;52.552;13.436;2023-05-07T04:45:52;7.00;;;6.30;;
18983;SDS011;9626;52.552;13.436;2023-05-07T04:48:18;7.33;;;6.60;;
18983;SDS011;9626;52.552;13.436;2023-05-07T04:50:49;7.37;;;6.67;;
18983;SDS011;9626;52.552;13.436;2023-05-07T04:53:16;8.17;;;6.40;;
18983;SDS011;9626;52.552;13.436;2023-05-07T04:55:43;7.83;;;6.27;;
18983;SDS011;9626;52.552;13.436;2023-05-07T04:58:11;6.87;;;6.17;;
18983;SDS011;9626;52.552;13.436;2023-05-07T05:00:38;7.97;;;6.23;;
18983;SDS011;9626;52.552;13.436;2023-05-07T05:03:06;7.33;;;6.33;;
18983;SDS011;9626;52.552;13.436;2023-05-07T05:05:32;7.70;;;6.40;;
18983;SDS011;9626;52.552;13.436;2023-05-07T05:07:58;8.73;;;6.30;;
18983;SDS011;9626;52.552;13.436;2023-05-07T05:10:24;7.90;;;6.10;;
18983;SDS011;9626;52.552;13.436;2023-05-07T05:12:51;9.70;;;6.10;;
18983;SDS011;9626;52.552;13.436;2023-05-07T05:15:17;9.10;;;6.50;;
18983;SDS011;9626;52.552;13.436;2023-05-07T05:17:43;8.40;;;6.30;;
18983;SDS011;9626;52.552;13.436;2023-05-07T05:20:09;8.17;;;6.60;;
18983;SDS011;9626;52.552;13.436;2023-05-07T05:22:37;6.30;;;5.67;;
18983;SDS011;9626;52.552;13.436;2023-05-07T05:25:03;7.10;;;6.40;;
18983;SDS011;9626;52.552;13.436;2023-05-07T05:27:30;8.60;;;6.63;;
18983;SDS011;9626;52.552;13.436;2023-05-07T05:29:56;8.33;;;7.00;;
18983;SDS011;9626;52.552;13.436;2023-05-07T05:32:22;7.17;;;6.47;;
18983;SDS011;9626;52.552;13.436;2023-05-07T05:34:48;8.07;;;6.30;;
18983;SDS011;9626;52.552;13.436;2023-05-07T05:37:14;9.23;;;6.60;;
18983;SDS011;9626;52.552;13.436;2023-05-07T05:39:40;9.00;;;6.60;;
18983;SDS011;9626;52.552;13.436;2023-05-07T05:42:07;8.27;;;6.37;;
18983;SDS011;9626;52.552;13.436;2023-05-07T05:44:32;7.50;;;6.43;;
18983;SDS011;9626;52.552;13.436;2023-05-07T05:46:58;9.57;;;6.43;;
18983;SDS011;9626;52.552;13.436;2023-05-07T05:49:25;10.27;;;6.93;;
18983;SDS011;9626;52.552;13.436;2023-05-07T05:51:51;7.67;;;6.87;;
18983;SDS011;9626;52.552;13.436;2023-05-07T05:54:17;7.57;;;6.77;;
18983;SDS011;9626;52.552;13.436;2023-05-07T05:56:43;9.00;;;7.10;;
18983;SDS011;9626;52.552;13.436;2023-05-07T05:59:09;8.90;;;7.00;;
18983;SDS011;9626;52.552;13.436;2023-05-07T06:01:36;11.07;;;7.00;;
18983;SDS011;9626;52.552;13.436;2023-05-07T06:04:02;7.70;;;6.80;;
18983;SDS011;9626;52.552;13.436;2023-05-07T06:06:28;8.60;;;7.23;;
18983;SDS011;9626;52.552;13.436;2023-05-07T06:08:54;9.93;;;6.63;;
18983;SDS011;9626;52.552;13.436;2023-05-07T06:11:20;7.30;;;6.60;;
18983;SDS011;9626;52.552;13.436;2023-05-07T06:13:48;8.57;;;6.60;;
18983;SDS011;9626;52.552;13.436;2023-05-07T06:16:14;7.80;;;6.57;;
18983;SDS011;9626;52.552;13.436;2023-05-07T06:18:40;7.67;;;6.73;;
18983;SDS011;9626;52.552;13.436;2023-05-07T06:21:06;7.70;;;5.93;;
18983;SDS011;9626;52.552;13.436;2023-05-07T06:23:32;10.20;;;6.47;;
18983;SDS011;9626;52.552;13.436;2023-05-07T06:25:58;11.90;;;6.73;;
18983;SDS011;9626;52.552;13.436;2023-05-07T06:28:24;8.83;;;6.37;;
18983;SDS011;9626;52.552;13.436;2023-05-07T06:30:50;7.60;;;6.03;;
18983;SDS011;9626;52.552;13.436;2023-05-07T06:33:16;7.93;;;6.33;;
18983;SDS011;9626;52.552;13.436;2023-05-07T06:35:42;7.10;;;5.63;;
18983;SDS011;9626;52.552;13.436;2023-05-07T06:38:08;6.13;;;5.40;;
18983;SDS011;9626;52.552;13.436;2023-05-07T06:40:34;7.47;;;5.37;;
18983;SDS011;9626;52.552;13.436;2023-05-07T06:43:00;9.67;;;6.30;;
18983;SDS011;9626;52.552;13.436;2023-05-07T06:45:26;6.60;;;5.90;;
18983;SDS011;9626;52.552;13.436;2023-05-07T06:47:52;7.07;;;5.90;;
18983;SDS011;9626;52.552;13.436;2023-05-07T06:50:18;8.37;;;6.43;;
18983;SDS011;9626;52.552;13.436;2023-05-07T06:52:45;7.07;;;5.67;;
18983;SDS011;9626;52.552;13.436;2023-05-07T06:55:11;7.63;;;5.40;;
18983;SDS011;9626;52.552;13.436;2023-05-07T06:57:37;10.43;;;6.07;;
18983;SDS011;9626;52.552;13.436;2023-05-07T07:00:04;8.57;;;5.63;;
18983;SDS011;9626;52.552;13.436;2023-05-07T07:02:32;6.63;;;4.73;;
18983;SDS011;9626;52.552;13.436;2023-05-07T07:04:58;6.70;;;5.27;;
18983;SDS011;9626;52.552;13.436;2023-05-07T07:07:24;5.77;;;4.97;;
18983;SDS011;9626;52.552;13.436;2023-05-07T07:09:50;5.97;;;4.40;;
18983;SDS011;9626;52.552;13.436;2023-05-07T07:12:17;6.33;;;4.63;;
18983;SDS011;9626;52.552;13.436;2023-05-07T07:14:43;5.40;;;4.60;;
18983;SDS011;9626;52.552;13.436;2023-05-07T07:17:09;5.70;;;4.10;;
18983;SDS011;9626;52.552;13.436;2023-05-07T07:19:35;9.00;;;4.97;;
18983;SDS011;9626;52.552;13.436;2023-05-07T07:22:01;5.20;;;4.50;;
18983;SDS011;9626;52.552;13.436;2023-05-07T07:24:27;8.37;;;5.00;;
18983;SDS011;9626;52.552;13.436;2023-05-07T07:26:53;6.03;;;4.60;;
18983;SDS011;9626;52.552;13.436;2023-05-07T07:29:20;5.70;;;4.53;;
18983;SDS011;9626;52.552;13.436;2023-05-07T07:31:47;5.73;;;4.30;;
18983;SDS011;9626;52.552;13.436;2023-05-07T07:34:14;5.67;;;4.00;;
18983;SDS011;9626;52.552;13.436;2023-05-07T07:36:41;4.77;;;4.07;;
18983;SDS011;9626;52.552;13.436;2023-05-07T07:39:08;4.40;;;4.00;;
18983;SDS011;9626;52.552;13.436;2023-05-07T07:41:33;5.70;;;3.93;;
18983;SDS011;9626;52.552;13.436;2023-05-07T07:43:59;4.70;;;3.90;;
18983;SDS011;9626;52.552;13.436;2023-05-07T07:46:25;4.33;;;3.80;;
18983;SDS011;9626;52.552;13.436;2023-05-07T07:48:52;4.07;;;3.37;;
18983;SDS011;9626;52.552;13.436;2023-05-07T07:51:18;4.13;;;3.50;;
18983;SDS011;9626;52.552;13.436;2023-05-07T07:53:44;3.60;;;3.30;;
18983;SDS011;9626;52.552;13.436;2023-05-07T07:56:10;4.33;;;3.37;;
18983;SDS011;9626;52.552;13.436;2023-05-07T07:58:36;4.30;;;3.90;;
18983;SDS011;9626;52.552;13.436;2023-05-07T08:01:03;4.03;;;2.93;;
18983;SDS011;9626;52.552;13.436;2023-05-07T08:03:29;4.53;;;3.27;;
18983;SDS011;9626;52.552;13.436;2023-05-07T08:05:57;3.63;;;3.23;;
18983;SDS011;9626;52.552;13.436;2023-05-07T08:08:24;3.87;;;3.30;;
18983;SDS011;9626;52.552;13.436;2023-05-07T08:10:50;4.27;;;3.30;;
18983;SDS011;9626;52.552;13.436;2023-05-07T08:13:17;6.40;;;2.87;;
18983;SDS011;9626;52.552;13.436;2023-05-07T08:15:43;5.10;;;2.90;;
18983;SDS011;9626;52.552;13.436;2023-05-07T08:18:09;3.20;;;2.73;;
18983;SDS011;9626;52.552;13.436;2023-05-07T08:20:35;4.67;;;3.10;;
18983;SDS011;9626;52.552;13.436;2023-05-07T08:23:05;4.67;;;3.20;;
18983;SDS011;9626;52.552;13.436;2023-05-07T08:25:33;5.47;;;3.67;;
18983;SDS011;9626;52.552;13.436;2023-05-07T08:28:00;9.40;;;3.97;;
18983;SDS011;9626;52.552;13.436;2023-05-07T08:30:26;3.83;;;2.90;;
18983;SDS011;9626;52.552;13.436;2023-05-07T08:32:52;3.83;;;2.97;;
18983;SDS011;9626;52.552;13.436;2023-05-07T08:35:18;3.80;;;2.57;;
18983;SDS011;9626;52.552;13.436;2023-05-07T08:37:44;6.23;;;2.53;;
18983;SDS011;9626;52.552;13.436;2023-05-07T08:40:10;4.93;;;3.10;;
18983;SDS011;9626;52.552;13.436;2023-05-07T08:42:36;3.77;;;2.83;;
18983;SDS011;9626;52.552;13.436;2023-05-07T08:45:03;3.87;;;3.00;;
18983;SDS011;9626;52.552;13.436;2023-05-07T08:47:34;5.90;;;2.47;;
18983;SDS011;9626;52.552;13.436;2023-05-07T08:50:08;2.90;;;2.43;;
18983;SDS011;9626;52.552;13.436;2023-05-07T08:52:34;5.00;;;2.60;;
18983;SDS011;9626;52.552;13.436;2023-05-07T08:55:01;5.80;;;2.57;;
18983;SDS011;9626;52.552;13.436;2023-05-07T08:57:28;5.10;;;2.87;;
18983;SDS011;9626;52.552;13.436;2023-05-07T08:59:55;5.93;;;2.70;;
18983;SDS011;9626;52.552;13.436;2023-05-07T09:02:21;3.73;;;2.47;;
18983;SDS011;9626;52.552;13.436;2023-05-07T09:04:47;3.07;;;2.23;;
18983;SDS011;9626;52.552;13.436;2023-05-07T09:07:13;4.53;;;2.50;;
18983;SDS011;9626;52.552;13.436;2023-05-07T09:09:39;3.07;;;2.37;;
18983;SDS011;9626;52.552;13.436;2023-05-07T09:12:05;3.60;;;2.17;;
18983;SDS011;9626;52.552;13.436;2023-05-07T09:14:31;3.43;;;2.37;;
18983;SDS011;9626;52.552;13.436;2023-05-07T09:16:57;3.37;;;2.20;;
18983;SDS011;9626;52.552;13.436;2023-05-07T09:19:23;2.60;;;2.40;;
18983;SDS011;9626;52.552;13.436;2023-05-07T09:21:57;2.60;;;2.00;;
18983;SDS011;9626;52.552;13.436;2023-05-07T09:24:24;4.47;;;2.53;;
18983;SDS011;9626;52.552;13.436;2023-05-07T09:26:50;2.70;;;2.03;;
18983;SDS011;9626;52.552;13.436;2023-05-07T09:29:16;2.80;;;2.37;;
18983;SDS011;9626;52.552;13.436;2023-05-07T09:31:43;4.53;;;2.40;;
18983;SDS011;9626;52.552;13.436;2023-05-07T09:34:09;3.77;;;2.40;;
18983;SDS011;9626;52.552;13.436;2023-05-07T09:36:35;4.20;;;2.30;;
18983;SDS011;9626;52.552;13.436;2023-05-07T09:39:01;3.53;;;2.33;;
18983;SDS011;9626;52.552;13.436;2023-05-07T09:41:27;2.53;;;2.33;;
18983;SDS011;9626;52.552;13.436;2023-05-07T09:43:56;2.10;;;1.90;;
18983;SDS011;9626;52.552;13.436;2023-05-07T09:46:30;2.57;;;2.33;;
18983;SDS011;9626;52.552;13.436;2023-05-07T09:48:59;3.57;;;1.80;;
18983;SDS011;9626;52.552;13.436;2023-05-07T09:51:32;5.63;;;2.27;;
18983;SDS011;9626;52.552;13.436;2023-05-07T09:54:05;2.47;;;1.83;;
18983;SDS011;9626;52.552;13.436;2023-05-07T09:56:32;1.87;;;1.73;;
18983;SDS011;9626;52.552;13.436;2023-05-07T09:59:00;5.83;;;2.30;;
18983;SDS011;9626;52.552;13.436;2023-05-07T10:01:26;3.03;;;2.30;;
18983;SDS011;9626;52.552;13.436;2023-05-07T10:03:53;4.03;;;1.90;;
18983;SDS011;9626;52.552;13.436;2023-05-07T10:06:20;3.67;;;2.20;;
18983;SDS011;9626;52.552;13.436;2023-05-07T10:08:46;3.87;;;1.90;;
18983;SDS011;9626;52.552;13.436;2023-05-07T10:11:14;3.50;;;2.10;;
18983;SDS011;9626;52.552;13.436;2023-05-07T10:13:41;3.30;;;2.27;;
18983;SDS011;9626;52.552;13.436;2023-05-07T10:16:08;3.83;;;1.83;;
18983;SDS011;9626;52.552;13.436;2023-05-07T10:18:34;1.90;;;1.80;;
18983;SDS011;9626;52.552;13.436;2023-05-07T10:21:07;3.97;;;1.50;;
18983;SDS011;9626;52.552;13.436;2023-05-07T10:23:36;2.10;;;1.90;;
18983;SDS011;9626;52.552;13.436;2023-05-07T10:26:05;3.63;;;2.20;;
18983;SDS011;9626;52.552;13.436;2023-05-07T10:28:41;3.93;;;1.80;;
18983;SDS011;9626;52.552;13.436;2023-05-07T10:31:15;2.23;;;1.60;;
18983;SDS011;9626;52.552;13.436;2023-05-07T10:33:52;1.57;;;1.47;;
18983;SDS011;9626;52.552;13.436;2023-05-07T10:36:21;3.30;;;2.77;;
18983;SDS011;9626;52.552;13.436;2023-05-07T10:38:48;1.97;;;1.50;;
18983;SDS011;9626;52.552;13.436;2023-05-07T10:41:15;3.50;;;2.00;;
18983;SDS011;9626;52.552;13.436;2023-05-07T10:43:44;2.73;;;2.00;;
18983;SDS011;9626;52.552;13.436;2023-05-07T10:46:14;2.77;;;2.50;;
18983;SDS011;9626;52.552;13.436;2023-05-07T10:51:31;2.80;;;2.03;;
18983;SDS011;9626;52.552;13.436;2023-05-07T10:56:37;2.20;;;2.00;;
18983;SDS011;9626;52.552;13.436;2023-05-07T10:59:30;2.97;;;1.70;;
18983;SDS011;9626;52.552;13.436;2023-05-07T11:01:58;7.47;;;1.87;;
18983;SDS011;9626;52.552;13.436;2023-05-07T11:04:28;2.10;;;1.73;;
18983;SDS011;9626;52.552;13.436;2023-05-07T11:15:06;3.33;;;1.87;;
18983;SDS011;9626;52.552;13.436;2023-05-07T11:17:34;1.43;;;1.30;;
18983;SDS011;9626;52.552;13.436;2023-05-07T11:20:02;1.70;;;1.50;;
18983;SDS011;9626;52.552;13.436;2023-05-07T11:24:55;3.57;;;1.80;;
18983;SDS011;9626;52.552;13.436;2023-05-07T11:27:23;2.40;;;1.70;;
18983;SDS011;9626;52.552;13.436;2023-05-07T11:29:50;2.20;;;1.50;;
18983;SDS011;9626;52.552;13.436;2023-05-07T11:32:22;3.00;;;1.63;;
18983;SDS011;9626;52.552;13.436;2023-05-07T11:34:51;3.90;;;1.90;;
18983;SDS011;9626;52.552;13.436;2023-05-07T11:37:18;2.87;;;1.70;;
18983;SDS011;9626;52.552;13.436;2023-05-07T11:39:46;1.93;;;1.33;;
18983;SDS011;9626;52.552;13.436;2023-05-07T11:42:27;1.73;;;1.63;;
18983;SDS011;9626;52.552;13.436;2023-05-07T11:44:58;2.73;;;2.23;;
18983;SDS011;9626;52.552;13.436;2023-05-07T11:47:24;3.00;;;1.77;;
18983;SDS011;9626;52.552;13.436;2023-05-07T11:49:53;1.73;;;1.50;;
18983;SDS011;9626;52.552;13.436;2023-05-07T11:52:21;3.23;;;1.53;;
18983;SDS011;9626;52.552;13.436;2023-05-07T11:54:51;1.70;;;1.40;;
18983;SDS011;9626;52.552;13.436;2023-05-07T11:57:19;3.00;;;2.20;;
18983;SDS011;9626;52.552;13.436;2023-05-07T11:59:45;3.80;;;1.73;;
18983;SDS011;9626;52.552;13.436;2023-05-07T12:02:13;2.00;;;1.80;;
18983;SDS011;9626;52.552;13.436;2023-05-07T12:04:41;1.67;;;1.40;;
18983;SDS011;9626;52.552;13.436;2023-05-07T12:07:13;1.90;;;1.70;;
18983;SDS011;9626;52.552;13.436;2023-05-07T12:09:41;1.70;;;1.60;;
18983;SDS011;9626;52.552;13.436;2023-05-07T12:12:07;2.73;;;1.57;;
18983;SDS011;9626;52.552;13.436;2023-05-07T12:14:37;2.33;;;1.43;;
18983;SDS011;9626;52.552;13.436;2023-05-07T12:17:13;2.33;;;1.80;;
18983;SDS011;9626;52.552;13.436;2023-05-07T12:19:40;3.07;;;2.00;;
18983;SDS011;9626;52.552;13.436;2023-05-07T12:22:08;1.33;;;1.23;;
18983;SDS011;9626;52.552;13.436;2023-05-07T12:24:47;2.50;;;1.60;;
18983;SDS011;9626;52.552;13.436;2023-05-07T12:27:15;3.17;;;1.80;;
18983;SDS011;9626;52.552;13.436;2023-05-07T12:29:48;2.93;;;2.40;;
18983;SDS011;9626;52.552;13.436;2023-05-07T12:32:19;3.40;;;2.20;;
18983;SDS011;9626;52.552;13.436;2023-05-07T12:34:46;4.93;;;2.20;;
18983;SDS011;9626;52.552;13.436;2023-05-07T12:37:15;3.23;;;2.43;;
18983;SDS011;9626;52.552;13.436;2023-05-07T12:39:44;3.10;;;1.77;;
18983;SDS011;9626;52.552;13.436;2023-05-07T12:42:16;4.13;;;2.27;;
18983;SDS011;9626;52.552;13.436;2023-05-07T12:44:45;1.50;;;1.40;;
18983;SDS011;9626;52.552;13.436;2023-05-07T12:47:12;2.60;;;1.50;;
18983;SDS011;9626;52.552;13.436;2023-05-07T12:49:38;2.33;;;1.80;;
18983;SDS011;9626;52.552;13.436;2023-05-07T12:52:05;1.83;;;1.40;;
18983;SDS011;9626;52.552;13.436;2023-05-07T12:54:32;1.97;;;1.80;;
18983;SDS011;9626;52.552;13.436;2023-05-07T12:57:00;4.30;;;1.80;;
18983;SDS011;9626;52.552;13.436;2023-05-07T12:59:37;2.23;;;2.00;;
18983;SDS011;9626;52.552;13.436;2023-05-07T13:02:04;3.67;;;2.37;;
18983;SDS011;9626;52.552;13.436;2023-05-07T13:04:30;1.47;;;1.37;;
18983;SDS011;9626;52.552;13.436;2023-05-07T13:06:56;2.73;;;1.50;;
18983;SDS011;9626;52.552;13.436;2023-05-07T13:09:23;6.33;;;1.43;;
18983;SDS011;9626;52.552;13.436;2023-05-07T13:11:49;3.93;;;3.37;;
18983;SDS011;9626;52.552;13.436;2023-05-07T13:14:15;2.40;;;1.93;;
18983;SDS011;9626;52.552;13.436;2023-05-07T13:16:41;2.83;;;1.70;;
18983;SDS011;9626;52.552;13.436;2023-05-07T13:19:07;4.60;;;1.97;;
18983;SDS011;9626;52.552;13.436;2023-05-07T13:21:33;3.23;;;2.20;;
18983;SDS011;9626;52.552;13.436;2023-05-07T13:23:59;3.53;;;2.63;;
18983;SDS011;9626;52.552;13.436;2023-05-07T13:26:25;3.63;;;2.67;;
18983;SDS011;9626;52.552;13.436;2023-05-07T13:28:52;4.40;;;2.07;;
18983;SDS011;9626;52.552;13.436;2023-05-07T13:31:19;2.97;;;2.63;;
18983;SDS011;9626;52.552;13.436;2023-05-07T13:33:46;3.30;;;2.17;;
18983;SDS011;9626;52.552;13.436;2023-05-07T13:36:12;4.83;;;3.80;;
18983;SDS011;9626;52.552;13.436;2023-05-07T13:38:39;2.60;;;1.80;;
18983;SDS011;9626;52.552;13.436;2023-05-07T13:41:05;1.80;;;1.70;;
18983;SDS011;9626;52.552;13.436;2023-05-07T13:43:31;3.23;;;1.80;;
18983;SDS011;9626;52.552;13.436;2023-05-07T13:45:59;2.67;;;1.40;;
18983;SDS011;9626;52.552;13.436;2023-05-07T13:48:26;4.90;;;4.03;;
18983;SDS011;9626;52.552;13.436;2023-05-07T13:50:52;2.23;;;1.40;;
18983;SDS011;9626;52.552;13.436;2023-05-07T13:53:18;4.37;;;2.77;;
18983;SDS011;9626;52.552;13.436;2023-05-07T13:55:44;1.67;;;1.20;;
18983;SDS011;9626;52.552;13.436;2023-05-07T13:58:10;1.70;;;1.30;;
18983;SDS011;9626;52.552;13.436;2023-05-07T14:00:37;3.70;;;2.13;;
18983;SDS011;9626;52.552;13.436;2023-05-07T14:03:03;4.67;;;2.40;;
18983;SDS011;9626;52.552;13.436;2023-05-07T14:05:30;4.97;;;2.27;;
18983;SDS011;9626;52.552;13.436;2023-05-07T14:07:57;5.63;;;4.43;;
18983;SDS011;9626;52.552;13.436;2023-05-07T14:10:23;3.13;;;2.03;;
18983;SDS011;9626;52.552;13.436;2023-05-07T14:12:52;4.70;;;1.90;;
18983;SDS011;9626;52.552;13.436;2023-05-07T14:15:18;4.87;;;1.80;;
18983;SDS011;9626;52.552;13.436;2023-05-07T14:17:44;2.90;;;1.67;;
18983;SDS011;9626;52.552;13.436;2023-05-07T14:20:11;1.30;;;1.20;;
18983;SDS011;9626;52.552;13.436;2023-05-07T14:22:38;3.03;;;1.53;;
18983;SDS011;9626;52.552;13.436;2023-05-07T14:25:04;4.63;;;1.40;;
18983;SDS011;9626;52.552;13.436;2023-05-07T14:27:30;2.80;;;1.47;;
18983;SDS011;9626;52.552;13.436;2023-05-07T14:29:56;2.20;;;1.50;;
18983;SDS011;9626;52.552;13.436;2023-05-07T14:32:22;2.37;;;1.70;;
18983;SDS011;9626;52.552;13.436;2023-05-07T14:34:48;3.33;;;1.93;;
18983;SDS011;9626;52.552;13.436;2023-05-07T14:37:14;3.93;;;1.90;;
18983;SDS011;9626;52.552;13.436;2023-05-07T14:39:40;3.70;;;1.60;;
18983;SDS011;9626;52.552;13.436;2023-05-07T14:42:06;1.50;;;1.30;;
18983;SDS011;9626;52.552;13.436;2023-05-07T14:44:34;3.27;;;1.60;;
18983;SDS011;9626;52.552;13.436;2023-05-07T14:47:01;3.13;;;1.60;;
18983;SDS011;9626;52.552;13.436;2023-05-07T14:49:27;2.37;;;1.73;;
18983;SDS011;9626;52.552;13.436;2023-05-07T14:51:53;1.73;;;1.50;;
18983;SDS011;9626;52.552;13.436;2023-05-07T14:54:19;2.90;;;1.67;;
18983;SDS011;9626;52.552;13.436;2023-05-07T14:56:45;1.90;;;1.33;;
18983;SDS011;9626;52.552;13.436;2023-05-07T14:59:11;2.90;;;1.40;;
18983;SDS011;9626;52.552;13.436;2023-05-07T15:01:37;4.57;;;2.10;;